Airfield :
LOGIN :

Register | Disclaimer

   EN    FR    IT 

 










Legend :    VFR   Marginal VFR   IFR   Intensive IFR   Very Intensive IFR
Visi :
Ceiling :
>= 8 km
>= 3000ft
5 to 8 km
1000 to 3000 ft
1500m to 5 km
500 to 1000 ft
800 to 1500m
200 to 500 ft
< 800m
< 200 ft
Symbols :   Thunderstorms  Fog  Heavy snow  Heavy precipitations  Wind > 20 kt
SIGMETs :     Misc.  Thunderstorms  Icing  Turbulence  Mountain Waves  Volcanic Ashes






- Airport Elevation : 1306 ft
- IATA code : ACH


LSZR - Alten Rhein

CURRENT METAR :
  • 261550Z 02004KT 340V050 9999 FEW060 22/09 Q1018 RMK I

EXPIRED METARs :
  • 261520Z 01004KT 330V050 9999 FEW040 22/09 Q1018 RMK H
  • 261450Z 01004KT 330V050 9999 FEW040 22/09 Q1018 RMK H
  • 261420Z 04005KT 9999 FEW040 22/08 Q1018 RMK G
  • 261350Z 04005KT 9999 FEW040 22/08 Q1018 RMK G
  • 261320Z VRB02KT 9999 FEW040 21/07 Q1018 RMK F
  • 261250Z VRB02KT 9999 FEW040 21/07 Q1018 RMK F
  • 261220Z VRB03KT 9999 FEW040 20/08 Q1019 RMK E
  • 261150Z VRB03KT 9999 FEW040 20/08 Q1019 RMK E
  • 261120Z 32003KT 230V010 CAVOK 19/10 Q1019 RMK D

TAF TAF LSZR
Valid from the 26 at 15:00 until the 27 at 00:00 UTC


261425Z 2615/2624 30005KT 9999 FEW040 SCT100
ATIS : +41 71 858 51 66



MET'MAP, your aeronautical weather chart ! - Copyright ORBIFLY December 2007 - Disclaimer

ORBIFLY MET'MAP TEAM :

Programming & Development : Alexandra Zaïnal
Original concept : Baudouin d'Aumeries
Technical & hardware support : Manuel Goepfert
Assistance : Marc-Olivier Méhu




SOURCES & CREDITS :

   NOAA